KHWDKLVK

Guest
Details From KHWD - Hayward Executive
To KLVK - Livermore Muni
Flight Number -
Tags generated
Created
Modified
Stats Distance 17 nm / 31 km
Max Altitude 1,800 ft / 549 m
Waypoints 3
Social Downloads 1
Likes 0
Share VATSIM

Download

Looking for another format? Having issues loading an existing format? Contact us
Advertisement - Login to hide

Notes

Basic altitude profile: - Ascent Rate: 800ft/min - Ascent Speed: 80kts - Cruise Altitude: 3000ft - Cruise Speed: 120kts - Descent Rate: 800ft/min - Descent Speed: 80kts

Route

KHWD DECOT KLVK

ID Type Via Altitude Latitude Longitude Leg Dist Tot Dist Heading (true) Name
O KHWD APT - 0 ft / 0 m 37.65925˚ -122.12193˚ - 0 nm - Hayward Executive
DECOT FIX - 1,800 ft / 549 m 37.60604˚ -122.04875˚ 4 nm 4 nm 133° / 133° -
O KLVK APT - 0 ft / 0 m 37.69318˚ -121.82037˚ 12 nm 16 nm 64° / 64° Livermore Muni

Altitude Profile

Advertisement - Login to hide

KHWD

Details ICAO KHWD (HWD)
Name Hayward Executive
Region United States
Timezone America/Los_Angeles (UTC-8.0)
Stats Elevation 52 ft / 16 m (AMSL)
Location 37.659252° -122.121935°
Runways 2
Magnetic Variation 13.435° E

METAR

KHWD 110354Z 12003KT 10SM CLR 12/01 A3021 RMK AO2 SLP239 T01170006

Decode

TAF

Not found

Departure Runways

ID Width Length Bearing (true) Bearing (mag) Surface Threshold Offset Overrun Length
10L 75 ft / 23 m 3,104 ft / 946 m 119.95° 106.52° Asphalt 0 ft / 0 m 0 ft / 0 m
10R 151 ft / 46 m 5,688 ft / 1,734 m 119.95° 106.52° Asphalt 817 ft / 249 m 0 ft / 0 m
28L 151 ft / 46 m 5,688 ft / 1,734 m 299.96° 286.53° Asphalt 676 ft / 206 m 0 ft / 0 m
28R 75 ft / 23 m 3,104 ft / 946 m 299.96° 286.53° Asphalt 0 ft / 0 m 0 ft / 0 m

KLVK

Details ICAO KLVK (LVK)
Name Livermore Muni
Region United States
Timezone America/Los_Angeles (UTC-8.0)
Stats Elevation 400 ft / 122 m (AMSL)
Location 37.693179° -121.820375°
Runways 2
Magnetic Variation 13.394° E

METAR

KLVK 110353Z 00000KT 10SM CLR 07/02 A3022 RMK AO2 SLP236 T00670017

Decode

TAF

TAF KLVK 102320Z 1100/1124 06011KT P6SM FEW200 FM110400 VRB03KT P6SM SKC FM111930 06008KT P6SM SKC

Decode

Destination Runways

ID Width Length Bearing (true) Bearing (mag) Surface Threshold Offset Overrun Length
07L 98 ft / 30 m 5,241 ft / 1,598 m 90.57° 77.18° Asphalt 0 ft / 0 m 151 ft / 46 m
07R 75 ft / 23 m 2,694 ft / 821 m 90.58° 77.19° Asphalt 0 ft / 0 m 0 ft / 0 m
25L 75 ft / 23 m 2,694 ft / 821 m 270.59° 257.20° Asphalt 0 ft / 0 m 0 ft / 0 m
25R 98 ft / 30 m 5,241 ft / 1,598 m 270.58° 257.19° Asphalt 0 ft / 0 m 151 ft / 46 m

Approach Navaids

Runway Type Ident Frequency Range Bearing (true) Bearing (mag) Slope Elevation
25R Localiser ILVK 110.50 MHz 18 nm / 33 km 270.56° 257.17° - 365 ft / 111 m (AMSL)
25R Glidescope ILVK 110.50 MHz 10 nm / 19 km 270.57° 257.18° 3.00° 393 ft / 120 m (AMSL)

Popular Alternatives